sensor_id;sensor_type;location;lat;lon;timestamp;pressure;altitude;pressure_sealevel;temperature
73894;BMP280;62699;50.534;12.784;2024-02-23T00:00:01;93731.06;;;10.22
73894;BMP280;62699;50.534;12.784;2024-02-23T00:05:05;93742.50;;;10.05
73894;BMP280;62699;50.534;12.784;2024-02-23T00:10:06;93741.44;;;10.01
73894;BMP280;62699;50.534;12.784;2024-02-23T00:15:07;93736.59;;;9.99
73894;BMP280;62699;50.534;12.784;2024-02-23T00:20:09;93733.78;;;9.97
73894;BMP280;62699;50.534;12.784;2024-02-23T00:25:12;93740.53;;;9.81
73894;BMP280;62699;50.534;12.784;2024-02-23T00:30:13;93708.31;;;9.81
73894;BMP280;62699;50.534;12.784;2024-02-23T00:35:13;93722.00;;;9.68
73894;BMP280;62699;50.534;12.784;2024-02-23T00:40:15;93770.75;;;9.57
73894;BMP280;62699;50.534;12.784;2024-02-23T00:45:15;93789.25;;;9.53
73894;BMP280;62699;50.534;12.784;2024-02-23T00:50:16;93782.44;;;9.52
73894;BMP280;62699;50.534;12.784;2024-02-23T00:55:16;93794.44;;;9.51
73894;BMP280;62699;50.534;12.784;2024-02-23T01:00:17;93832.06;;;9.43
73894;BMP280;62699;50.534;12.784;2024-02-23T01:05:17;93848.53;;;9.40
73894;BMP280;62699;50.534;12.784;2024-02-23T01:10:18;93844.66;;;9.26
73894;BMP280;62699;50.534;12.784;2024-02-23T01:15:18;93850.44;;;9.14
73894;BMP280;62699;50.534;12.784;2024-02-23T01:20:18;93904.63;;;9.05
73894;BMP280;62699;50.534;12.784;2024-02-23T01:25:19;93901.25;;;8.97
73894;BMP280;62699;50.534;12.784;2024-02-23T01:30:19;93892.13;;;8.93
73894;BMP280;62699;50.534;12.784;2024-02-23T01:35:20;93898.22;;;8.93
73894;BMP280;62699;50.534;12.784;2024-02-23T01:40:20;93924.31;;;8.85
73894;BMP280;62699;50.534;12.784;2024-02-23T01:45:20;93908.59;;;8.74
73894;BMP280;62699;50.534;12.784;2024-02-23T01:50:21;93914.84;;;8.61
73894;BMP280;62699;50.534;12.784;2024-02-23T01:55:21;93920.38;;;8.56
73894;BMP280;62699;50.534;12.784;2024-02-23T02:00:22;93915.91;;;8.51
73894;BMP280;62699;50.534;12.784;2024-02-23T02:05:22;93930.22;;;8.46
73894;BMP280;62699;50.534;12.784;2024-02-23T02:10:23;93950.22;;;8.45
73894;BMP280;62699;50.534;12.784;2024-02-23T02:15:23;93950.22;;;8.45
73894;BMP280;62699;50.534;12.784;2024-02-23T02:20:24;93964.53;;;8.40
73894;BMP280;62699;50.534;12.784;2024-02-23T02:25:26;93958.06;;;8.35
73894;BMP280;62699;50.534;12.784;2024-02-23T02:30:26;93969.34;;;8.33
73894;BMP280;62699;50.534;12.784;2024-02-23T02:35:26;93976.63;;;8.25
73894;BMP280;62699;50.534;12.784;2024-02-23T02:40:26;93979.47;;;8.12
73894;BMP280;62699;50.534;12.784;2024-02-23T02:45:27;93981.94;;;8.03
73894;BMP280;62699;50.534;12.784;2024-02-23T02:50:27;93984.94;;;7.99
73894;BMP280;62699;50.534;12.784;2024-02-23T02:55:27;93998.25;;;7.84
73894;BMP280;62699;50.534;12.784;2024-02-23T03:00:28;94021.13;;;7.85
73894;BMP280;62699;50.534;12.784;2024-02-23T03:05:28;94040.34;;;7.76
73894;BMP280;62699;50.534;12.784;2024-02-23T03:10:28;94054.41;;;7.69
73894;BMP280;62699;50.534;12.784;2024-02-23T03:15:29;94057.78;;;7.62
73894;BMP280;62699;50.534;12.784;2024-02-23T03:20:29;94053.72;;;7.47
73894;BMP280;62699;50.534;12.784;2024-02-23T03:25:29;94085.44;;;7.43
73894;BMP280;62699;50.534;12.784;2024-02-23T03:30:29;94088.22;;;7.30
73894;BMP280;62699;50.534;12.784;2024-02-23T03:35:30;94120.19;;;7.15
73894;BMP280;62699;50.534;12.784;2024-02-23T03:40:30;94122.88;;;7.02
73894;BMP280;62699;50.534;12.784;2024-02-23T03:45:30;94128.88;;;6.95
73894;BMP280;62699;50.534;12.784;2024-02-23T03:50:30;94136.75;;;6.80
73894;BMP280;62699;50.534;12.784;2024-02-23T03:55:31;94144.59;;;6.64
73894;BMP280;62699;50.534;12.784;2024-02-23T04:00:31;94149.13;;;6.43
73894;BMP280;62699;50.534;12.784;2024-02-23T04:05:32;94153.44;;;6.46
73894;BMP280;62699;50.534;12.784;2024-02-23T04:10:32;94172.34;;;6.35
73894;BMP280;62699;50.534;12.784;2024-02-23T04:15:32;94190.84;;;6.20
73894;BMP280;62699;50.534;12.784;2024-02-23T04:20:32;94183.47;;;6.26
73894;BMP280;62699;50.534;12.784;2024-02-23T04:25:33;94182.41;;;6.16
73894;BMP280;62699;50.534;12.784;2024-02-23T04:30:33;94185.06;;;6.16
73894;BMP280;62699;50.534;12.784;2024-02-23T04:35:33;94195.25;;;6.17
73894;BMP280;62699;50.534;12.784;2024-02-23T04:40:33;94195.56;;;6.14
73894;BMP280;62699;50.534;12.784;2024-02-23T04:45:33;94214.03;;;6.12
73894;BMP280;62699;50.534;12.784;2024-02-23T04:50:34;94195.75;;;6.16
73894;BMP280;62699;50.534;12.784;2024-02-23T04:55:34;94202.63;;;6.11
73894;BMP280;62699;50.534;12.784;2024-02-23T05:00:34;94194.72;;;6.06
73894;BMP280;62699;50.534;12.784;2024-02-23T05:05:35;94195.34;;;5.99
73894;BMP280;62699;50.534;12.784;2024-02-23T05:10:35;94201.25;;;5.92
73894;BMP280;62699;50.534;12.784;2024-02-23T05:15:35;94206.06;;;5.80
73894;BMP280;62699;50.534;12.784;2024-02-23T05:20:36;94214.31;;;5.63
73894;BMP280;62699;50.534;12.784;2024-02-23T05:25:36;94224.94;;;5.50
73894;BMP280;62699;50.534;12.784;2024-02-23T05:30:36;94237.28;;;5.53
73894;BMP280;62699;50.534;12.784;2024-02-23T05:35:37;94264.81;;;5.42
73894;BMP280;62699;50.534;12.784;2024-02-23T05:40:37;94271.31;;;5.47
73894;BMP280;62699;50.534;12.784;2024-02-23T05:45:37;94280.97;;;5.50
73894;BMP280;62699;50.534;12.784;2024-02-23T05:50:37;94304.06;;;5.48
73894;BMP280;62699;50.534;12.784;2024-02-23T05:55:38;94314.13;;;5.36
73894;BMP280;62699;50.534;12.784;2024-02-23T06:00:38;94313.16;;;5.39
73894;BMP280;62699;50.534;12.784;2024-02-23T06:05:39;94314.13;;;5.36
73894;BMP280;62699;50.534;12.784;2024-02-23T06:10:39;94315.19;;;5.27
73894;BMP280;62699;50.534;12.784;2024-02-23T06:15:39;94324.50;;;5.21
73894;BMP280;62699;50.534;12.784;2024-02-23T06:20:40;94330.88;;;5.12
73894;BMP280;62699;50.534;12.784;2024-02-23T06:25:41;94310.75;;;5.11
73894;BMP280;62699;50.534;12.784;2024-02-23T06:30:41;94329.03;;;5.07
73894;BMP280;62699;50.534;12.784;2024-02-23T06:35:42;94329.44;;;5.11
73894;BMP280;62699;50.534;12.784;2024-02-23T06:40:42;94327.38;;;5.23
73894;BMP280;62699;50.534;12.784;2024-02-23T06:45:42;94338.78;;;5.42
73894;BMP280;62699;50.534;12.784;2024-02-23T06:50:43;94353.53;;;5.67
73894;BMP280;62699;50.534;12.784;2024-02-23T06:55:43;94360.53;;;5.70
73894;BMP280;62699;50.534;12.784;2024-02-23T07:00:43;94384.34;;;5.68
73894;BMP280;62699;50.534;12.784;2024-02-23T07:05:44;94402.06;;;5.66
73894;BMP280;62699;50.534;12.784;2024-02-23T07:10:45;94405.03;;;5.62
73894;BMP280;62699;50.534;12.784;2024-02-23T07:15:45;94407.69;;;5.62
73894;BMP280;62699;50.534;12.784;2024-02-23T07:20:46;94403.13;;;5.57
73894;BMP280;62699;50.534;12.784;2024-02-23T07:25:46;94437.63;;;5.55
73894;BMP280;62699;50.534;12.784;2024-02-23T07:30:48;94470.38;;;5.56
73894;BMP280;62699;50.534;12.784;2024-02-23T07:35:48;94464.50;;;5.57
73894;BMP280;62699;50.534;12.784;2024-02-23T07:40:48;94447.00;;;5.62
73894;BMP280;62699;50.534;12.784;2024-02-23T07:45:49;94455.72;;;5.62
73894;BMP280;62699;50.534;12.784;2024-02-23T07:50:49;94456.19;;;5.66
73894;BMP280;62699;50.534;12.784;2024-02-23T07:55:49;94460.72;;;5.71
73894;BMP280;62699;50.534;12.784;2024-02-23T08:00:50;94459.44;;;5.78
73894;BMP280;62699;50.534;12.784;2024-02-23T08:05:50;94453.88;;;5.76
73894;BMP280;62699;50.534;12.784;2024-02-23T08:10:50;94464.38;;;6.11
73894;BMP280;62699;50.534;12.784;2024-02-23T08:15:53;94467.81;;;6.44
73894;BMP280;62699;50.534;12.784;2024-02-23T08:20:54;94473.59;;;6.66
73894;BMP280;62699;50.534;12.784;2024-02-23T08:25:54;94470.22;;;7.24
73894;BMP280;62699;50.534;12.784;2024-02-23T08:30:56;94465.81;;;8.26
73894;BMP280;62699;50.534;12.784;2024-02-23T08:35:56;94484.25;;;8.85
73894;BMP280;62699;50.534;12.784;2024-02-23T08:40:57;94504.13;;;8.34
73894;BMP280;62699;50.534;12.784;2024-02-23T08:45:58;94507.56;;;7.62
73894;BMP280;62699;50.534;12.784;2024-02-23T08:50:58;94512.63;;;7.33
73894;BMP280;62699;50.534;12.784;2024-02-23T08:55:58;94520.91;;;7.48
73894;BMP280;62699;50.534;12.784;2024-02-23T09:00:58;94503.88;;;7.33
73894;BMP280;62699;50.534;12.784;2024-02-23T09:05:59;94526.13;;;6.96
73894;BMP280;62699;50.534;12.784;2024-02-23T09:10:59;94523.47;;;6.96
73894;BMP280;62699;50.534;12.784;2024-02-23T09:15:59;94511.28;;;6.82
73894;BMP280;62699;50.534;12.784;2024-02-23T09:21:00;94496.03;;;7.08
73894;BMP280;62699;50.534;12.784;2024-02-23T09:26:00;94498.88;;;7.29
73894;BMP280;62699;50.534;12.784;2024-02-23T09:31:00;94483.31;;;7.67
73894;BMP280;62699;50.534;12.784;2024-02-23T09:36:01;94491.00;;;8.10
73894;BMP280;62699;50.534;12.784;2024-02-23T09:41:03;94502.13;;;8.27
73894;BMP280;62699;50.534;12.784;2024-02-23T09:46:04;94506.91;;;8.42
73894;BMP280;62699;50.534;12.784;2024-02-23T09:51:05;94506.81;;;7.48
73894;BMP280;62699;50.534;12.784;2024-02-23T09:56:08;94527.00;;;8.02
73894;BMP280;62699;50.534;12.784;2024-02-23T10:01:08;94529.66;;;8.15
73894;BMP280;62699;50.534;12.784;2024-02-23T10:06:11;94524.28;;;8.15
73894;BMP280;62699;50.534;12.784;2024-02-23T10:11:12;94536.16;;;7.80
73894;BMP280;62699;50.534;12.784;2024-02-23T10:16:12;94538.44;;;7.89
73894;BMP280;62699;50.534;12.784;2024-02-23T10:21:12;94552.16;;;7.72
73894;BMP280;62699;50.534;12.784;2024-02-23T10:26:13;94543.97;;;7.38
73894;BMP280;62699;50.534;12.784;2024-02-23T10:31:13;94548.34;;;7.81
73894;BMP280;62699;50.534;12.784;2024-02-23T10:36:15;94562.13;;;7.85
73894;BMP280;62699;50.534;12.784;2024-02-23T10:41:16;94587.56;;;7.33
73894;BMP280;62699;50.534;12.784;2024-02-23T10:46:18;94608.72;;;7.37
73894;BMP280;62699;50.534;12.784;2024-02-23T10:51:18;94588.19;;;7.26
73894;BMP280;62699;50.534;12.784;2024-02-23T10:56:21;94570.06;;;7.64
73894;BMP280;62699;50.534;12.784;2024-02-23T11:01:23;94578.00;;;7.70
73894;BMP280;62699;50.534;12.784;2024-02-23T11:06:28;94594.38;;;7.79
73894;BMP280;62699;50.534;12.784;2024-02-23T11:11:31;94591.41;;;7.83
73894;BMP280;62699;50.534;12.784;2024-02-23T11:16:32;94574.91;;;7.21
73894;BMP280;62699;50.534;12.784;2024-02-23T11:21:34;94584.00;;;7.12
73894;BMP280;62699;50.534;12.784;2024-02-23T11:26:37;94586.34;;;7.34
73894;BMP280;62699;50.534;12.784;2024-02-23T11:31:44;94594.94;;;7.14
73894;BMP280;62699;50.534;12.784;2024-02-23T11:36:50;94594.94;;;7.14
73894;BMP280;62699;50.534;12.784;2024-02-23T11:41:53;94579.59;;;7.15
73894;BMP280;62699;50.534;12.784;2024-02-23T11:46:53;94584.41;;;7.03
73894;BMP280;62699;50.534;12.784;2024-02-23T11:51:54;94583.59;;;7.08
73894;BMP280;62699;50.534;12.784;2024-02-23T11:56:54;94590.22;;;7.20
73894;BMP280;62699;50.534;12.784;2024-02-23T12:01:54;94581.72;;;7.03
73894;BMP280;62699;50.534;12.784;2024-02-23T12:06:55;94590.69;;;7.37
73894;BMP280;62699;50.534;12.784;2024-02-23T12:11:56;94591.13;;;7.41
73894;BMP280;62699;50.534;12.784;2024-02-23T12:16:57;94577.41;;;7.32
73894;BMP280;62699;50.534;12.784;2024-02-23T12:22:01;94579.81;;;7.17
73894;BMP280;62699;50.534;12.784;2024-02-23T12:27:01;94581.22;;;7.36
73894;BMP280;62699;50.534;12.784;2024-02-23T12:32:04;94562.03;;;7.32
73894;BMP280;62699;50.534;12.784;2024-02-23T12:37:05;94586.28;;;7.40
73894;BMP280;62699;50.534;12.784;2024-02-23T12:42:05;94581.63;;;7.08
73894;BMP280;62699;50.534;12.784;2024-02-23T12:47:05;94579.72;;;7.22
73894;BMP280;62699;50.534;12.784;2024-02-23T12:52:06;94575.09;;;7.23
73894;BMP280;62699;50.534;12.784;2024-02-23T12:57:06;94580.34;;;6.96
73894;BMP280;62699;50.534;12.784;2024-02-23T13:02:08;94572.44;;;6.91
73894;BMP280;62699;50.534;12.784;2024-02-23T13:07:10;94576.59;;;7.05
73894;BMP280;62699;50.534;12.784;2024-02-23T13:12:10;94575.00;;;6.96
73894;BMP280;62699;50.534;12.784;2024-02-23T13:17:11;94576.22;;;7.14
73894;BMP280;62699;50.534;12.784;2024-02-23T13:22:11;94572.88;;;7.08
73894;BMP280;62699;50.534;12.784;2024-02-23T13:27:11;94576.50;;;6.79
73894;BMP280;62699;50.534;12.784;2024-02-23T13:32:12;94581.53;;;6.82
73894;BMP280;62699;50.534;12.784;2024-02-23T13:37:12;94581.97;;;6.86
73894;BMP280;62699;50.534;12.784;2024-02-23T13:42:12;94585.88;;;6.66
73894;BMP280;62699;50.534;12.784;2024-02-23T13:47:13;94574.44;;;6.85
73894;BMP280;62699;50.534;12.784;2024-02-23T13:52:14;94577.78;;;6.91
73894;BMP280;62699;50.534;12.784;2024-02-23T13:57:14;94595.97;;;6.92
73894;BMP280;62699;50.534;12.784;2024-02-23T14:02:14;94589.56;;;6.63
73894;BMP280;62699;50.534;12.784;2024-02-23T14:07:15;94609.13;;;6.72
73894;BMP280;62699;50.534;12.784;2024-02-23T14:12:16;94615.78;;;6.84
73894;BMP280;62699;50.534;12.784;2024-02-23T14:17:17;94613.47;;;6.56
73894;BMP280;62699;50.534;12.784;2024-02-23T14:22:18;94615.19;;;6.53
73894;BMP280;62699;50.534;12.784;2024-02-23T14:27:18;94610.88;;;6.50
73894;BMP280;62699;50.534;12.784;2024-02-23T14:32:19;94608.25;;;6.45
73894;BMP280;62699;50.534;12.784;2024-02-23T14:37:19;94595.97;;;6.36
73894;BMP280;62699;50.534;12.784;2024-02-23T14:42:19;94587.88;;;6.42
73894;BMP280;62699;50.534;12.784;2024-02-23T14:47:20;94587.09;;;6.28
73894;BMP280;62699;50.534;12.784;2024-02-23T14:52:20;94576.16;;;6.26
73894;BMP280;62699;50.534;12.784;2024-02-23T14:57:20;94582.84;;;6.38
73894;BMP280;62699;50.534;12.784;2024-02-23T15:02:22;94590.47;;;6.29
73894;BMP280;62699;50.534;12.784;2024-02-23T15:07:22;94602.00;;;6.18
73894;BMP280;62699;50.534;12.784;2024-02-23T15:12:22;94595.91;;;6.17
73894;BMP280;62699;50.534;12.784;2024-02-23T15:17:24;94576.28;;;6.15
73894;BMP280;62699;50.534;12.784;2024-02-23T15:22:24;94545.66;;;6.16
73894;BMP280;62699;50.534;12.784;2024-02-23T15:27:25;94556.81;;;6.20
73894;BMP280;62699;50.534;12.784;2024-02-23T15:32:26;94559.38;;;6.07
73894;BMP280;62699;50.534;12.784;2024-02-23T15:37:26;94547.31;;;6.00
73894;BMP280;62699;50.534;12.784;2024-02-23T15:42:26;94554.16;;;5.96
73894;BMP280;62699;50.534;12.784;2024-02-23T15:47:27;94566.84;;;5.90
73894;BMP280;62699;50.534;12.784;2024-02-23T15:52:27;94573.75;;;5.79
73894;BMP280;62699;50.534;12.784;2024-02-23T15:57:27;94598.03;;;5.76
73894;BMP280;62699;50.534;12.784;2024-02-23T16:02:27;94643.50;;;5.65
73894;BMP280;62699;50.534;12.784;2024-02-23T16:07:28;94645.50;;;5.59
73894;BMP280;62699;50.534;12.784;2024-02-23T16:12:28;94653.31;;;5.51
73894;BMP280;62699;50.534;12.784;2024-02-23T16:17:28;94640.50;;;5.44
73894;BMP280;62699;50.534;12.784;2024-02-23T16:22:28;94639.13;;;5.37
73894;BMP280;62699;50.534;12.784;2024-02-23T16:27:29;94613.91;;;5.33
73894;BMP280;62699;50.534;12.784;2024-02-23T16:32:29;94599.88;;;5.27
73894;BMP280;62699;50.534;12.784;2024-02-23T16:37:30;94603.75;;;5.26
73894;BMP280;62699;50.534;12.784;2024-02-23T16:42:32;94593.38;;;5.22
73894;BMP280;62699;50.534;12.784;2024-02-23T16:47:32;94588.31;;;5.19
73894;BMP280;62699;50.534;12.784;2024-02-23T16:52:32;94584.47;;;5.09
73894;BMP280;62699;50.534;12.784;2024-02-23T16:57:33;94570.47;;;5.02
73894;BMP280;62699;50.534;12.784;2024-02-23T17:02:34;94571.00;;;4.95
73894;BMP280;62699;50.534;12.784;2024-02-23T17:07:34;94573.97;;;4.86
73894;BMP280;62699;50.534;12.784;2024-02-23T17:12:35;94587.31;;;4.81
73894;BMP280;62699;50.534;12.784;2024-02-23T17:17:36;94584.63;;;4.86
73894;BMP280;62699;50.534;12.784;2024-02-23T17:22:36;94582.25;;;4.77
73894;BMP280;62699;50.534;12.784;2024-02-23T17:27:36;94569.88;;;4.80
73894;BMP280;62699;50.534;12.784;2024-02-23T17:32:38;94580.78;;;4.76
73894;BMP280;62699;50.534;12.784;2024-02-23T17:37:38;94583.75;;;4.67
73894;BMP280;62699;50.534;12.784;2024-02-23T17:42:41;94571.66;;;4.66
73894;BMP280;62699;50.534;12.784;2024-02-23T17:47:41;94575.59;;;4.54
73894;BMP280;62699;50.534;12.784;2024-02-23T17:52:41;94573.66;;;4.49
73894;BMP280;62699;50.534;12.784;2024-02-23T17:57:41;94569.28;;;4.51
73894;BMP280;62699;50.534;12.784;2024-02-23T18:02:42;94579.72;;;4.49
73894;BMP280;62699;50.534;12.784;2024-02-23T18:07:42;94587.72;;;4.44
73894;BMP280;62699;50.534;12.784;2024-02-23T18:12:42;94574.69;;;4.35
73894;BMP280;62699;50.534;12.784;2024-02-23T18:17:42;94578.81;;;4.30
73894;BMP280;62699;50.534;12.784;2024-02-23T18:22:42;94571.31;;;4.29
73894;BMP280;62699;50.534;12.784;2024-02-23T18:27:43;94561.19;;;4.16
73894;BMP280;62699;50.534;12.784;2024-02-23T18:32:43;94558.53;;;4.10
73894;BMP280;62699;50.534;12.784;2024-02-23T18:37:43;94575.25;;;4.05
73894;BMP280;62699;50.534;12.784;2024-02-23T18:42:43;94580.84;;;3.96
73894;BMP280;62699;50.534;12.784;2024-02-23T18:47:44;94611.84;;;3.94
73894;BMP280;62699;50.534;12.784;2024-02-23T18:52:45;94606.75;;;3.90
73894;BMP280;62699;50.534;12.784;2024-02-23T18:57:45;94581.34;;;3.89
73894;BMP280;62699;50.534;12.784;2024-02-23T19:02:45;94566.56;;;3.88
73894;BMP280;62699;50.534;12.784;2024-02-23T19:07:45;94546.72;;;3.89
73894;BMP280;62699;50.534;12.784;2024-02-23T19:12:45;94576.28;;;3.86
73894;BMP280;62699;50.534;12.784;2024-02-23T19:17:46;94597.78;;;3.82
73894;BMP280;62699;50.534;12.784;2024-02-23T19:22:46;94615.94;;;3.83
73894;BMP280;62699;50.534;12.784;2024-02-23T19:27:47;94614.75;;;3.85
73894;BMP280;62699;50.534;12.784;2024-02-23T19:32:47;94609.41;;;3.85
73894;BMP280;62699;50.534;12.784;2024-02-23T19:37:48;94605.06;;;3.93
73894;BMP280;62699;50.534;12.784;2024-02-23T19:42:49;94602.38;;;3.93
73894;BMP280;62699;50.534;12.784;2024-02-23T19:47:50;94591.69;;;3.98
73894;BMP280;62699;50.534;12.784;2024-02-23T19:52:50;94579.41;;;3.90
73894;BMP280;62699;50.534;12.784;2024-02-23T19:57:51;94578.44;;;3.93
73894;BMP280;62699;50.534;12.784;2024-02-23T20:02:51;94573.81;;;3.99
73894;BMP280;62699;50.534;12.784;2024-02-23T20:07:52;94554.88;;;4.25
73894;BMP280;62699;50.534;12.784;2024-02-23T20:12:52;94537.69;;;4.20
73894;BMP280;62699;50.534;12.784;2024-02-23T20:17:54;94559.53;;;4.02
73894;BMP280;62699;50.534;12.784;2024-02-23T20:22:54;94571.44;;;3.84
73894;BMP280;62699;50.534;12.784;2024-02-23T20:27:54;94583.06;;;3.70
73894;BMP280;62699;50.534;12.784;2024-02-23T20:32:55;94586.91;;;3.58
73894;BMP280;62699;50.534;12.784;2024-02-23T20:37:55;94580.41;;;3.53
73894;BMP280;62699;50.534;12.784;2024-02-23T20:42:58;94592.00;;;3.56
73894;BMP280;62699;50.534;12.784;2024-02-23T20:47:58;94590.56;;;3.55
73894;BMP280;62699;50.534;12.784;2024-02-23T20:52:58;94590.78;;;3.57
73894;BMP280;62699;50.534;12.784;2024-02-23T20:57:59;94591.28;;;3.61
73894;BMP280;62699;50.534;12.784;2024-02-23T21:03:02;94601.91;;;3.61
73894;BMP280;62699;50.534;12.784;2024-02-23T21:08:02;94605.06;;;3.65
73894;BMP280;62699;50.534;12.784;2024-02-23T21:13:03;94595.16;;;3.71
73894;BMP280;62699;50.534;12.784;2024-02-23T21:18:06;94594.66;;;3.67
73894;BMP280;62699;50.534;12.784;2024-02-23T21:23:08;94583.53;;;3.74
73894;BMP280;62699;50.534;12.784;2024-02-23T21:28:08;94572.16;;;3.73
73894;BMP280;62699;50.534;12.784;2024-02-23T21:33:08;94555.25;;;3.65
73894;BMP280;62699;50.534;12.784;2024-02-23T21:38:09;94551.88;;;3.54
73894;BMP280;62699;50.534;12.784;2024-02-23T21:43:09;94559.34;;;3.38
73894;BMP280;62699;50.534;12.784;2024-02-23T21:48:09;94573.84;;;3.26
73894;BMP280;62699;50.534;12.784;2024-02-23T21:53:09;94590.03;;;3.12
73894;BMP280;62699;50.534;12.784;2024-02-23T21:58:10;94578.66;;;3.00
73894;BMP280;62699;50.534;12.784;2024-02-23T22:03:10;94575.25;;;2.88
73894;BMP280;62699;50.534;12.784;2024-02-23T22:08:11;94578.84;;;2.85
73894;BMP280;62699;50.534;12.784;2024-02-23T22:13:11;94578.84;;;2.85
73894;BMP280;62699;50.534;12.784;2024-02-23T22:18:13;94569.88;;;2.60
73894;BMP280;62699;50.534;12.784;2024-02-23T22:23:13;94562.09;;;2.51
73894;BMP280;62699;50.534;12.784;2024-02-23T22:28:13;94553.88;;;2.44
73894;BMP280;62699;50.534;12.784;2024-02-23T22:33:13;94559.38;;;2.40
73894;BMP280;62699;50.534;12.784;2024-02-23T22:38:13;94560.13;;;2.46
73894;BMP280;62699;50.534;12.784;2024-02-23T22:43:14;94575.84;;;2.50
73894;BMP280;62699;50.534;12.784;2024-02-23T22:48:14;94593.44;;;2.47
73894;BMP280;62699;50.534;12.784;2024-02-23T22:53:15;94593.28;;;2.67
73894;BMP280;62699;50.534;12.784;2024-02-23T22:58:15;94593.84;;;2.83
73894;BMP280;62699;50.534;12.784;2024-02-23T23:03:15;94602.72;;;2.69
73894;BMP280;62699;50.534;12.784;2024-02-23T23:08:16;94604.19;;;2.75
73894;BMP280;62699;50.534;12.784;2024-02-23T23:13:16;94599.84;;;2.78
73894;BMP280;62699;50.534;12.784;2024-02-23T23:18:16;94597.22;;;2.83
73894;BMP280;62699;50.534;12.784;2024-02-23T23:23:16;94596.25;;;2.81
73894;BMP280;62699;50.534;12.784;2024-02-23T23:28:17;94599.38;;;2.74
73894;BMP280;62699;50.534;12.784;2024-02-23T23:33:17;94603.44;;;2.63
73894;BMP280;62699;50.534;12.784;2024-02-23T23:38:18;94594.25;;;2.59
73894;BMP280;62699;50.534;12.784;2024-02-23T23:43:18;94597.59;;;2.65
73894;BMP280;62699;50.534;12.784;2024-02-23T23:48:18;94596.91;;;2.64
73894;BMP280;62699;50.534;12.784;2024-02-23T23:53:19;94592.81;;;2.69
73894;BMP280;62699;50.534;12.784;2024-02-23T23:58:20;94588.44;;;2.66
